sensor_id;sensor_type;location;lat;lon;timestamp;P1;durP1;ratioP1;P2;durP2;ratioP2
71038;SDS011;58692;43.212;27.908;2023-05-07T00:01:39;4.93;;;2.07;;
71038;SDS011;58692;43.212;27.908;2023-05-07T00:04:05;4.45;;;1.85;;
71038;SDS011;58692;43.212;27.908;2023-05-07T00:06:31;4.72;;;2.20;;
71038;SDS011;58692;43.212;27.908;2023-05-07T00:08:57;4.80;;;2.00;;
71038;SDS011;58692;43.212;27.908;2023-05-07T00:11:23;5.57;;;2.00;;
71038;SDS011;58692;43.212;27.908;2023-05-07T00:13:48;5.93;;;1.90;;
71038;SDS011;58692;43.212;27.908;2023-05-07T00:16:14;4.68;;;1.90;;
71038;SDS011;58692;43.212;27.908;2023-05-07T00:18:39;5.97;;;1.90;;
71038;SDS011;58692;43.212;27.908;2023-05-07T00:21:05;4.20;;;2.17;;
71038;SDS011;58692;43.212;27.908;2023-05-07T00:23:30;5.20;;;1.70;;
71038;SDS011;58692;43.212;27.908;2023-05-07T00:25:56;5.77;;;2.10;;
71038;SDS011;58692;43.212;27.908;2023-05-07T00:28:21;4.50;;;1.93;;
71038;SDS011;58692;43.212;27.908;2023-05-07T00:30:47;8.55;;;2.00;;
71038;SDS011;58692;43.212;27.908;2023-05-07T00:33:12;5.67;;;1.97;;
71038;SDS011;58692;43.212;27.908;2023-05-07T00:35:38;5.13;;;1.90;;
71038;SDS011;58692;43.212;27.908;2023-05-07T00:38:03;5.45;;;1.98;;
71038;SDS011;58692;43.212;27.908;2023-05-07T00:40:29;7.50;;;2.27;;
71038;SDS011;58692;43.212;27.908;2023-05-07T00:42:54;3.70;;;1.90;;
71038;SDS011;58692;43.212;27.908;2023-05-07T00:45:23;6.32;;;2.30;;
71038;SDS011;58692;43.212;27.908;2023-05-07T00:47:54;5.03;;;2.78;;
71038;SDS011;58692;43.212;27.908;2023-05-07T00:50:22;4.47;;;2.00;;
71038;SDS011;58692;43.212;27.908;2023-05-07T00:52:48;5.83;;;2.33;;
71038;SDS011;58692;43.212;27.908;2023-05-07T00:55:14;7.72;;;2.08;;
71038;SDS011;58692;43.212;27.908;2023-05-07T00:57:40;4.43;;;1.92;;
71038;SDS011;58692;43.212;27.908;2023-05-07T01:00:07;3.73;;;1.80;;
71038;SDS011;58692;43.212;27.908;2023-05-07T01:02:35;5.60;;;2.20;;
71038;SDS011;58692;43.212;27.908;2023-05-07T01:05:01;6.47;;;2.05;;
71038;SDS011;58692;43.212;27.908;2023-05-07T01:07:31;6.00;;;2.15;;
71038;SDS011;58692;43.212;27.908;2023-05-07T01:09:58;4.80;;;2.08;;
71038;SDS011;58692;43.212;27.908;2023-05-07T01:12:24;6.20;;;2.17;;
71038;SDS011;58692;43.212;27.908;2023-05-07T01:14:50;7.70;;;2.53;;
71038;SDS011;58692;43.212;27.908;2023-05-07T01:17:16;6.88;;;2.20;;
71038;SDS011;58692;43.212;27.908;2023-05-07T01:19:42;7.45;;;2.55;;
71038;SDS011;58692;43.212;27.908;2023-05-07T01:22:09;6.13;;;2.28;;
71038;SDS011;58692;43.212;27.908;2023-05-07T01:24:36;4.13;;;1.90;;
71038;SDS011;58692;43.212;27.908;2023-05-07T01:27:02;6.30;;;2.42;;
71038;SDS011;58692;43.212;27.908;2023-05-07T01:29:28;5.55;;;2.50;;
71038;SDS011;58692;43.212;27.908;2023-05-07T01:31:54;6.33;;;2.33;;
71038;SDS011;58692;43.212;27.908;2023-05-07T01:34:24;7.18;;;2.30;;
71038;SDS011;58692;43.212;27.908;2023-05-07T01:36:52;5.85;;;2.70;;
71038;SDS011;58692;43.212;27.908;2023-05-07T01:39:20;7.38;;;2.47;;
71038;SDS011;58692;43.212;27.908;2023-05-07T01:41:48;6.07;;;2.10;;
71038;SDS011;58692;43.212;27.908;2023-05-07T01:44:14;7.72;;;2.33;;
71038;SDS011;58692;43.212;27.908;2023-05-07T01:46:41;7.70;;;2.00;;
71038;SDS011;58692;43.212;27.908;2023-05-07T01:49:07;4.53;;;2.00;;
71038;SDS011;58692;43.212;27.908;2023-05-07T01:51:33;7.57;;;2.30;;
71038;SDS011;58692;43.212;27.908;2023-05-07T01:53:59;6.15;;;2.00;;
71038;SDS011;58692;43.212;27.908;2023-05-07T01:56:25;6.65;;;2.20;;
71038;SDS011;58692;43.212;27.908;2023-05-07T01:58:51;5.53;;;2.30;;
71038;SDS011;58692;43.212;27.908;2023-05-07T02:01:16;7.30;;;2.30;;
71038;SDS011;58692;43.212;27.908;2023-05-07T02:03:43;6.88;;;2.20;;
71038;SDS011;58692;43.212;27.908;2023-05-07T02:06:09;8.07;;;2.47;;
71038;SDS011;58692;43.212;27.908;2023-05-07T02:08:34;7.30;;;2.40;;
71038;SDS011;58692;43.212;27.908;2023-05-07T02:11:00;9.03;;;2.40;;
71038;SDS011;58692;43.212;27.908;2023-05-07T02:13:28;6.88;;;2.40;;
71038;SDS011;58692;43.212;27.908;2023-05-07T02:15:55;6.97;;;2.23;;
71038;SDS011;58692;43.212;27.908;2023-05-07T02:18:20;6.22;;;2.15;;
71038;SDS011;58692;43.212;27.908;2023-05-07T02:20:45;6.63;;;2.20;;
71038;SDS011;58692;43.212;27.908;2023-05-07T02:23:11;6.00;;;2.33;;
71038;SDS011;58692;43.212;27.908;2023-05-07T02:25:36;6.10;;;2.17;;
71038;SDS011;58692;43.212;27.908;2023-05-07T02:28:02;8.07;;;2.40;;
71038;SDS011;58692;43.212;27.908;2023-05-07T02:30:28;7.10;;;2.20;;
71038;SDS011;58692;43.212;27.908;2023-05-07T02:32:53;5.35;;;2.25;;
71038;SDS011;58692;43.212;27.908;2023-05-07T02:35:19;6.83;;;2.47;;
71038;SDS011;58692;43.212;27.908;2023-05-07T02:37:44;10.07;;;2.50;;
71038;SDS011;58692;43.212;27.908;2023-05-07T02:40:10;5.88;;;2.25;;
71038;SDS011;58692;43.212;27.908;2023-05-07T02:42:36;10.33;;;2.20;;
71038;SDS011;58692;43.212;27.908;2023-05-07T02:45:02;5.68;;;2.00;;
71038;SDS011;58692;43.212;27.908;2023-05-07T02:47:27;8.63;;;2.17;;
71038;SDS011;58692;43.212;27.908;2023-05-07T02:49:54;5.32;;;2.17;;
71038;SDS011;58692;43.212;27.908;2023-05-07T02:52:20;7.85;;;2.38;;
71038;SDS011;58692;43.212;27.908;2023-05-07T02:54:45;6.63;;;2.30;;
71038;SDS011;58692;43.212;27.908;2023-05-07T02:57:11;7.03;;;2.20;;
71038;SDS011;58692;43.212;27.908;2023-05-07T02:59:36;7.60;;;2.00;;
71038;SDS011;58692;43.212;27.908;2023-05-07T03:02:02;8.03;;;2.37;;
71038;SDS011;58692;43.212;27.908;2023-05-07T03:04:27;6.10;;;2.30;;
71038;SDS011;58692;43.212;27.908;2023-05-07T03:06:52;8.35;;;2.20;;
71038;SDS011;58692;43.212;27.908;2023-05-07T03:09:18;7.90;;;2.30;;
71038;SDS011;58692;43.212;27.908;2023-05-07T03:11:44;4.95;;;2.20;;
71038;SDS011;58692;43.212;27.908;2023-05-07T03:14:09;6.00;;;2.27;;
71038;SDS011;58692;43.212;27.908;2023-05-07T03:16:35;7.50;;;2.23;;
71038;SDS011;58692;43.212;27.908;2023-05-07T03:19:01;7.85;;;2.53;;
71038;SDS011;58692;43.212;27.908;2023-05-07T03:21:26;9.00;;;2.10;;
71038;SDS011;58692;43.212;27.908;2023-05-07T03:23:52;6.55;;;2.10;;
71038;SDS011;58692;43.212;27.908;2023-05-07T03:26:18;7.83;;;2.20;;
71038;SDS011;58692;43.212;27.908;2023-05-07T03:28:43;7.10;;;2.40;;
71038;SDS011;58692;43.212;27.908;2023-05-07T03:31:09;8.97;;;2.20;;
71038;SDS011;58692;43.212;27.908;2023-05-07T03:33:34;4.73;;;2.10;;
71038;SDS011;58692;43.212;27.908;2023-05-07T03:36:00;5.03;;;1.73;;
71038;SDS011;58692;43.212;27.908;2023-05-07T03:38:26;8.13;;;2.20;;
71038;SDS011;58692;43.212;27.908;2023-05-07T03:40:51;5.27;;;2.00;;
71038;SDS011;58692;43.212;27.908;2023-05-07T03:43:17;7.07;;;2.30;;
71038;SDS011;58692;43.212;27.908;2023-05-07T03:45:42;5.63;;;2.07;;
71038;SDS011;58692;43.212;27.908;2023-05-07T03:48:08;7.47;;;2.25;;
71038;SDS011;58692;43.212;27.908;2023-05-07T03:50:33;5.77;;;2.30;;
71038;SDS011;58692;43.212;27.908;2023-05-07T03:52:59;9.30;;;2.77;;
71038;SDS011;58692;43.212;27.908;2023-05-07T03:55:24;7.32;;;3.42;;
71038;SDS011;58692;43.212;27.908;2023-05-07T03:57:50;8.33;;;2.33;;
71038;SDS011;58692;43.212;27.908;2023-05-07T04:00:16;8.07;;;2.65;;
71038;SDS011;58692;43.212;27.908;2023-05-07T04:02:41;5.80;;;2.20;;
71038;SDS011;58692;43.212;27.908;2023-05-07T04:05:07;9.67;;;2.40;;
71038;SDS011;58692;43.212;27.908;2023-05-07T04:07:33;8.48;;;3.05;;
71038;SDS011;58692;43.212;27.908;2023-05-07T04:09:58;6.65;;;2.63;;
71038;SDS011;58692;43.212;27.908;2023-05-07T04:12:24;8.17;;;2.47;;
71038;SDS011;58692;43.212;27.908;2023-05-07T04:14:49;7.70;;;2.13;;
71038;SDS011;58692;43.212;27.908;2023-05-07T04:17:15;6.05;;;2.08;;
71038;SDS011;58692;43.212;27.908;2023-05-07T04:19:40;7.27;;;2.40;;
71038;SDS011;58692;43.212;27.908;2023-05-07T04:22:10;12.32;;;2.35;;
71038;SDS011;58692;43.212;27.908;2023-05-07T04:24:36;6.93;;;2.03;;
71038;SDS011;58692;43.212;27.908;2023-05-07T04:27:01;5.97;;;2.65;;
71038;SDS011;58692;43.212;27.908;2023-05-07T04:29:26;6.50;;;2.33;;
71038;SDS011;58692;43.212;27.908;2023-05-07T04:31:53;6.88;;;2.30;;
71038;SDS011;58692;43.212;27.908;2023-05-07T04:34:20;7.00;;;2.30;;
71038;SDS011;58692;43.212;27.908;2023-05-07T04:36:46;6.53;;;2.10;;
71038;SDS011;58692;43.212;27.908;2023-05-07T04:39:13;5.15;;;2.10;;
71038;SDS011;58692;43.212;27.908;2023-05-07T04:41:38;5.93;;;2.10;;
71038;SDS011;58692;43.212;27.908;2023-05-07T04:44:04;7.82;;;2.30;;
71038;SDS011;58692;43.212;27.908;2023-05-07T04:46:29;6.10;;;2.43;;
71038;SDS011;58692;43.212;27.908;2023-05-07T04:48:55;6.45;;;2.80;;
71038;SDS011;58692;43.212;27.908;2023-05-07T04:51:21;5.97;;;2.37;;
71038;SDS011;58692;43.212;27.908;2023-05-07T04:53:47;5.93;;;2.22;;
71038;SDS011;58692;43.212;27.908;2023-05-07T04:56:12;6.90;;;2.33;;
71038;SDS011;58692;43.212;27.908;2023-05-07T04:58:38;6.63;;;2.13;;
71038;SDS011;58692;43.212;27.908;2023-05-07T05:01:03;6.63;;;2.30;;
71038;SDS011;58692;43.212;27.908;2023-05-07T05:03:29;6.70;;;2.50;;
71038;SDS011;58692;43.212;27.908;2023-05-07T05:05:55;6.68;;;2.28;;
71038;SDS011;58692;43.212;27.908;2023-05-07T05:08:22;9.40;;;2.43;;
71038;SDS011;58692;43.212;27.908;2023-05-07T05:10:47;8.15;;;2.38;;
71038;SDS011;58692;43.212;27.908;2023-05-07T05:13:14;5.45;;;2.20;;
71038;SDS011;58692;43.212;27.908;2023-05-07T05:15:40;5.40;;;2.30;;
71038;SDS011;58692;43.212;27.908;2023-05-07T05:18:05;7.13;;;2.10;;
71038;SDS011;58692;43.212;27.908;2023-05-07T05:20:31;5.97;;;2.22;;
71038;SDS011;58692;43.212;27.908;2023-05-07T05:22:57;6.80;;;2.20;;
71038;SDS011;58692;43.212;27.908;2023-05-07T05:25:22;7.70;;;2.30;;
71038;SDS011;58692;43.212;27.908;2023-05-07T05:27:47;6.15;;;2.38;;
71038;SDS011;58692;43.212;27.908;2023-05-07T05:30:13;7.13;;;2.73;;
71038;SDS011;58692;43.212;27.908;2023-05-07T05:32:39;10.02;;;2.53;;
71038;SDS011;58692;43.212;27.908;2023-05-07T05:35:04;5.77;;;2.47;;
71038;SDS011;58692;43.212;27.908;2023-05-07T05:37:30;6.05;;;2.20;;
71038;SDS011;58692;43.212;27.908;2023-05-07T05:39:56;8.90;;;2.60;;
71038;SDS011;58692;43.212;27.908;2023-05-07T05:42:22;7.05;;;2.42;;
71038;SDS011;58692;43.212;27.908;2023-05-07T05:44:47;7.00;;;2.50;;
71038;SDS011;58692;43.212;27.908;2023-05-07T05:47:13;5.85;;;3.00;;
71038;SDS011;58692;43.212;27.908;2023-05-07T05:49:39;5.60;;;2.40;;
71038;SDS011;58692;43.212;27.908;2023-05-07T05:52:04;5.03;;;2.17;;
71038;SDS011;58692;43.212;27.908;2023-05-07T05:54:29;6.03;;;2.42;;
71038;SDS011;58692;43.212;27.908;2023-05-07T05:56:55;7.57;;;2.37;;
71038;SDS011;58692;43.212;27.908;2023-05-07T05:59:21;5.87;;;2.57;;
71038;SDS011;58692;43.212;27.908;2023-05-07T06:01:46;7.85;;;2.45;;
71038;SDS011;58692;43.212;27.908;2023-05-07T06:04:12;6.30;;;2.33;;
71038;SDS011;58692;43.212;27.908;2023-05-07T06:06:37;7.40;;;2.38;;
71038;SDS011;58692;43.212;27.908;2023-05-07T06:09:03;5.67;;;2.37;;
71038;SDS011;58692;43.212;27.908;2023-05-07T06:11:28;6.57;;;2.40;;
71038;SDS011;58692;43.212;27.908;2023-05-07T06:13:54;6.57;;;2.22;;
71038;SDS011;58692;43.212;27.908;2023-05-07T06:16:19;5.47;;;2.30;;
71038;SDS011;58692;43.212;27.908;2023-05-07T06:18:45;7.20;;;2.60;;
71038;SDS011;58692;43.212;27.908;2023-05-07T06:21:11;8.27;;;2.50;;
71038;SDS011;58692;43.212;27.908;2023-05-07T06:23:38;5.57;;;2.38;;
71038;SDS011;58692;43.212;27.908;2023-05-07T06:26:05;6.60;;;2.38;;
71038;SDS011;58692;43.212;27.908;2023-05-07T06:28:31;5.03;;;2.33;;
71038;SDS011;58692;43.212;27.908;2023-05-07T06:33:42;5.50;;;2.15;;
71038;SDS011;58692;43.212;27.908;2023-05-07T06:36:09;5.90;;;2.22;;
71038;SDS011;58692;43.212;27.908;2023-05-07T06:38:35;9.02;;;2.30;;
71038;SDS011;58692;43.212;27.908;2023-05-07T06:41:01;6.20;;;2.60;;
71038;SDS011;58692;43.212;27.908;2023-05-07T06:43:26;6.30;;;2.40;;
71038;SDS011;58692;43.212;27.908;2023-05-07T06:45:52;8.07;;;2.83;;
71038;SDS011;58692;43.212;27.908;2023-05-07T06:48:17;5.37;;;2.57;;
71038;SDS011;58692;43.212;27.908;2023-05-07T06:50:43;5.13;;;2.63;;
71038;SDS011;58692;43.212;27.908;2023-05-07T06:53:09;5.50;;;2.28;;
71038;SDS011;58692;43.212;27.908;2023-05-07T06:55:35;5.38;;;2.25;;
71038;SDS011;58692;43.212;27.908;2023-05-07T06:58:00;6.33;;;2.30;;
71038;SDS011;58692;43.212;27.908;2023-05-07T07:00:27;8.23;;;2.73;;
71038;SDS011;58692;43.212;27.908;2023-05-07T07:02:53;5.88;;;2.50;;
71038;SDS011;58692;43.212;27.908;2023-05-07T07:05:19;8.07;;;2.40;;
71038;SDS011;58692;43.212;27.908;2023-05-07T07:07:45;7.77;;;2.70;;
71038;SDS011;58692;43.212;27.908;2023-05-07T07:10:17;5.57;;;2.45;;
71038;SDS011;58692;43.212;27.908;2023-05-07T07:12:46;6.53;;;2.40;;
71038;SDS011;58692;43.212;27.908;2023-05-07T07:15:11;7.33;;;2.67;;
71038;SDS011;58692;43.212;27.908;2023-05-07T07:17:38;7.47;;;2.70;;
71038;SDS011;58692;43.212;27.908;2023-05-07T07:20:03;6.47;;;2.50;;
71038;SDS011;58692;43.212;27.908;2023-05-07T07:22:29;6.57;;;2.85;;
71038;SDS011;58692;43.212;27.908;2023-05-07T07:24:55;7.10;;;2.77;;
71038;SDS011;58692;43.212;27.908;2023-05-07T07:27:20;7.15;;;2.40;;
71038;SDS011;58692;43.212;27.908;2023-05-07T07:29:46;7.00;;;2.50;;
71038;SDS011;58692;43.212;27.908;2023-05-07T07:32:11;4.83;;;2.40;;
71038;SDS011;58692;43.212;27.908;2023-05-07T07:34:36;7.95;;;2.67;;
71038;SDS011;58692;43.212;27.908;2023-05-07T07:37:02;5.90;;;2.70;;
71038;SDS011;58692;43.212;27.908;2023-05-07T07:39:30;7.75;;;2.70;;
71038;SDS011;58692;43.212;27.908;2023-05-07T07:41:57;5.78;;;2.40;;
71038;SDS011;58692;43.212;27.908;2023-05-07T07:44:22;5.80;;;2.50;;
71038;SDS011;58692;43.212;27.908;2023-05-07T07:46:48;8.07;;;2.60;;
71038;SDS011;58692;43.212;27.908;2023-05-07T07:49:13;6.45;;;2.72;;
71038;SDS011;58692;43.212;27.908;2023-05-07T07:51:39;7.53;;;2.60;;
71038;SDS011;58692;43.212;27.908;2023-05-07T07:54:05;5.70;;;2.42;;
71038;SDS011;58692;43.212;27.908;2023-05-07T07:56:32;6.87;;;2.70;;
71038;SDS011;58692;43.212;27.908;2023-05-07T07:58:59;8.07;;;3.08;;
71038;SDS011;58692;43.212;27.908;2023-05-07T08:01:26;8.68;;;2.67;;
71038;SDS011;58692;43.212;27.908;2023-05-07T08:03:52;5.80;;;2.60;;
71038;SDS011;58692;43.212;27.908;2023-05-07T08:06:18;9.13;;;2.60;;
71038;SDS011;58692;43.212;27.908;2023-05-07T08:08:43;5.60;;;2.38;;
71038;SDS011;58692;43.212;27.908;2023-05-07T08:11:09;5.73;;;2.50;;
71038;SDS011;58692;43.212;27.908;2023-05-07T08:13:35;5.03;;;2.20;;
71038;SDS011;58692;43.212;27.908;2023-05-07T08:16:01;4.03;;;2.30;;
71038;SDS011;58692;43.212;27.908;2023-05-07T08:18:27;9.27;;;2.50;;
71038;SDS011;58692;43.212;27.908;2023-05-07T08:20:54;5.93;;;2.60;;
71038;SDS011;58692;43.212;27.908;2023-05-07T08:23:20;6.85;;;2.70;;
71038;SDS011;58692;43.212;27.908;2023-05-07T08:25:46;7.17;;;2.60;;
71038;SDS011;58692;43.212;27.908;2023-05-07T08:28:11;7.50;;;2.67;;
71038;SDS011;58692;43.212;27.908;2023-05-07T08:30:37;9.87;;;2.87;;
71038;SDS011;58692;43.212;27.908;2023-05-07T08:33:02;7.03;;;2.65;;
71038;SDS011;58692;43.212;27.908;2023-05-07T08:35:28;8.00;;;2.73;;
71038;SDS011;58692;43.212;27.908;2023-05-07T08:37:53;6.10;;;2.40;;
71038;SDS011;58692;43.212;27.908;2023-05-07T08:40:20;7.75;;;2.75;;
71038;SDS011;58692;43.212;27.908;2023-05-07T08:42:49;8.52;;;2.67;;
71038;SDS011;58692;43.212;27.908;2023-05-07T08:45:17;5.70;;;2.50;;
71038;SDS011;58692;43.212;27.908;2023-05-07T08:47:46;7.63;;;2.80;;
71038;SDS011;58692;43.212;27.908;2023-05-07T08:50:15;8.32;;;2.65;;
71038;SDS011;58692;43.212;27.908;2023-05-07T08:52:41;5.17;;;2.47;;
71038;SDS011;58692;43.212;27.908;2023-05-07T08:55:07;6.53;;;2.58;;
71038;SDS011;58692;43.212;27.908;2023-05-07T08:57:34;7.85;;;2.63;;
71038;SDS011;58692;43.212;27.908;2023-05-07T09:00:00;8.27;;;2.78;;
71038;SDS011;58692;43.212;27.908;2023-05-07T09:02:26;6.70;;;2.70;;
71038;SDS011;58692;43.212;27.908;2023-05-07T09:04:52;6.33;;;2.50;;
71038;SDS011;58692;43.212;27.908;2023-05-07T09:07:18;6.40;;;2.70;;
71038;SDS011;58692;43.212;27.908;2023-05-07T09:09:44;6.47;;;2.75;;
71038;SDS011;58692;43.212;27.908;2023-05-07T09:12:11;5.50;;;2.80;;
71038;SDS011;58692;43.212;27.908;2023-05-07T09:14:37;5.80;;;2.20;;
71038;SDS011;58692;43.212;27.908;2023-05-07T09:17:03;5.68;;;2.50;;
71038;SDS011;58692;43.212;27.908;2023-05-07T09:19:29;6.33;;;2.43;;
71038;SDS011;58692;43.212;27.908;2023-05-07T09:22:03;7.28;;;2.50;;
71038;SDS011;58692;43.212;27.908;2023-05-07T09:24:30;5.05;;;2.33;;
71038;SDS011;58692;43.212;27.908;2023-05-07T09:27:00;6.20;;;2.60;;
71038;SDS011;58692;43.212;27.908;2023-05-07T09:29:27;5.72;;;2.40;;
71038;SDS011;58692;43.212;27.908;2023-05-07T09:31:55;5.88;;;2.33;;
71038;SDS011;58692;43.212;27.908;2023-05-07T09:34:21;8.98;;;2.78;;
71038;SDS011;58692;43.212;27.908;2023-05-07T09:36:47;7.75;;;3.58;;
71038;SDS011;58692;43.212;27.908;2023-05-07T09:39:13;6.23;;;2.80;;
71038;SDS011;58692;43.212;27.908;2023-05-07T09:41:46;10.00;;;3.33;;
71038;SDS011;58692;43.212;27.908;2023-05-07T09:44:13;6.47;;;2.85;;
71038;SDS011;58692;43.212;27.908;2023-05-07T09:46:39;8.60;;;2.97;;
71038;SDS011;58692;43.212;27.908;2023-05-07T09:49:14;7.53;;;2.83;;
71038;SDS011;58692;43.212;27.908;2023-05-07T09:51:47;7.10;;;3.28;;
71038;SDS011;58692;43.212;27.908;2023-05-07T09:54:15;6.03;;;2.70;;
71038;SDS011;58692;43.212;27.908;2023-05-07T09:56:42;8.32;;;2.60;;
71038;SDS011;58692;43.212;27.908;2023-05-07T09:59:10;6.93;;;2.80;;
71038;SDS011;58692;43.212;27.908;2023-05-07T10:01:37;9.30;;;3.30;;
71038;SDS011;58692;43.212;27.908;2023-05-07T10:04:05;9.18;;;2.67;;
71038;SDS011;58692;43.212;27.908;2023-05-07T10:06:33;7.20;;;2.45;;
71038;SDS011;58692;43.212;27.908;2023-05-07T10:08:59;8.70;;;2.90;;
71038;SDS011;58692;43.212;27.908;2023-05-07T10:11:26;9.30;;;2.85;;
71038;SDS011;58692;43.212;27.908;2023-05-07T10:13:52;11.53;;;2.83;;
71038;SDS011;58692;43.212;27.908;2023-05-07T10:16:18;9.15;;;2.80;;
71038;SDS011;58692;43.212;27.908;2023-05-07T10:18:45;10.60;;;2.95;;
71038;SDS011;58692;43.212;27.908;2023-05-07T10:21:14;10.27;;;3.45;;
71038;SDS011;58692;43.212;27.908;2023-05-07T10:23:51;8.37;;;3.10;;
71038;SDS011;58692;43.212;27.908;2023-05-07T10:26:23;8.52;;;3.25;;
71038;SDS011;58692;43.212;27.908;2023-05-07T10:28:52;11.05;;;3.45;;
71038;SDS011;58692;43.212;27.908;2023-05-07T10:34:07;8.35;;;3.47;;
71038;SDS011;58692;43.212;27.908;2023-05-07T10:36:36;6.60;;;3.23;;
71038;SDS011;58692;43.212;27.908;2023-05-07T10:39:02;11.80;;;3.53;;
71038;SDS011;58692;43.212;27.908;2023-05-07T10:41:28;9.77;;;3.33;;
71038;SDS011;58692;43.212;27.908;2023-05-07T10:43:53;7.50;;;3.20;;
71038;SDS011;58692;43.212;27.908;2023-05-07T10:46:19;8.38;;;3.08;;
71038;SDS011;58692;43.212;27.908;2023-05-07T10:51:31;10.85;;;3.53;;
71038;SDS011;58692;43.212;27.908;2023-05-07T10:56:40;9.80;;;3.30;;
71038;SDS011;58692;43.212;27.908;2023-05-07T11:01:57;11.13;;;3.40;;
71038;SDS011;58692;43.212;27.908;2023-05-07T11:04:27;8.93;;;3.22;;
71038;SDS011;58692;43.212;27.908;2023-05-07T11:15:02;11.27;;;3.47;;
71038;SDS011;58692;43.212;27.908;2023-05-07T11:17:29;8.90;;;3.42;;
71038;SDS011;58692;43.212;27.908;2023-05-07T11:19:57;12.05;;;3.70;;
71038;SDS011;58692;43.212;27.908;2023-05-07T11:25:05;7.95;;;3.17;;
71038;SDS011;58692;43.212;27.908;2023-05-07T11:27:31;11.98;;;3.55;;
71038;SDS011;58692;43.212;27.908;2023-05-07T11:29:57;10.85;;;3.55;;
71038;SDS011;58692;43.212;27.908;2023-05-07T11:32:23;8.17;;;3.63;;
71038;SDS011;58692;43.212;27.908;2023-05-07T11:34:52;8.30;;;3.63;;
71038;SDS011;58692;43.212;27.908;2023-05-07T11:37:18;10.85;;;4.00;;
71038;SDS011;58692;43.212;27.908;2023-05-07T11:39:45;12.55;;;5.00;;
71038;SDS011;58692;43.212;27.908;2023-05-07T11:44:54;11.05;;;3.83;;
71038;SDS011;58692;43.212;27.908;2023-05-07T11:47:20;8.55;;;4.00;;
71038;SDS011;58692;43.212;27.908;2023-05-07T11:49:47;9.48;;;4.07;;
71038;SDS011;58692;43.212;27.908;2023-05-07T11:52:14;8.70;;;3.40;;
71038;SDS011;58692;43.212;27.908;2023-05-07T11:54:40;7.63;;;3.47;;
71038;SDS011;58692;43.212;27.908;2023-05-07T11:57:05;11.60;;;3.60;;
71038;SDS011;58692;43.212;27.908;2023-05-07T11:59:39;12.18;;;3.33;;
71038;SDS011;58692;43.212;27.908;2023-05-07T12:02:05;8.60;;;3.22;;
71038;SDS011;58692;43.212;27.908;2023-05-07T12:04:32;8.48;;;3.25;;
71038;SDS011;58692;43.212;27.908;2023-05-07T12:06:57;9.53;;;3.30;;
71038;SDS011;58692;43.212;27.908;2023-05-07T12:09:23;8.57;;;3.78;;
71038;SDS011;58692;43.212;27.908;2023-05-07T12:11:48;14.53;;;3.67;;
71038;SDS011;58692;43.212;27.908;2023-05-07T12:14:14;11.13;;;3.30;;
71038;SDS011;58692;43.212;27.908;2023-05-07T12:16:41;8.97;;;3.70;;
71038;SDS011;58692;43.212;27.908;2023-05-07T12:19:07;10.57;;;3.80;;
71038;SDS011;58692;43.212;27.908;2023-05-07T12:21:37;10.57;;;3.90;;
71038;SDS011;58692;43.212;27.908;2023-05-07T12:24:04;10.90;;;3.30;;
71038;SDS011;58692;43.212;27.908;2023-05-07T12:26:30;9.40;;;3.40;;
71038;SDS011;58692;43.212;27.908;2023-05-07T12:28:57;7.93;;;3.17;;
71038;SDS011;58692;43.212;27.908;2023-05-07T12:31:22;8.82;;;3.30;;
71038;SDS011;58692;43.212;27.908;2023-05-07T12:33:50;11.93;;;5.70;;
71038;SDS011;58692;43.212;27.908;2023-05-07T12:36:16;10.53;;;4.20;;
71038;SDS011;58692;43.212;27.908;2023-05-07T12:38:42;9.80;;;4.17;;
71038;SDS011;58692;43.212;27.908;2023-05-07T12:41:08;12.27;;;4.15;;
71038;SDS011;58692;43.212;27.908;2023-05-07T12:43:35;13.90;;;4.25;;
71038;SDS011;58692;43.212;27.908;2023-05-07T12:46:03;9.30;;;3.43;;
71038;SDS011;58692;43.212;27.908;2023-05-07T12:48:30;10.52;;;3.20;;
71038;SDS011;58692;43.212;27.908;2023-05-07T12:50:57;7.97;;;3.05;;
71038;SDS011;58692;43.212;27.908;2023-05-07T12:53:25;9.73;;;3.60;;
71038;SDS011;58692;43.212;27.908;2023-05-07T12:55:53;8.02;;;3.50;;
71038;SDS011;58692;43.212;27.908;2023-05-07T13:00:52;9.27;;;3.45;;
71038;SDS011;58692;43.212;27.908;2023-05-07T13:03:27;7.30;;;3.10;;
71038;SDS011;58692;43.212;27.908;2023-05-07T13:05:55;9.10;;;3.00;;
71038;SDS011;58692;43.212;27.908;2023-05-07T13:08:24;10.35;;;3.25;;
71038;SDS011;58692;43.212;27.908;2023-05-07T13:10:51;8.67;;;3.10;;
71038;SDS011;58692;43.212;27.908;2023-05-07T13:13:18;7.60;;;3.13;;
71038;SDS011;58692;43.212;27.908;2023-05-07T13:15:44;12.00;;;3.08;;
71038;SDS011;58692;43.212;27.908;2023-05-07T13:18:09;8.80;;;3.00;;
71038;SDS011;58692;43.212;27.908;2023-05-07T13:20:36;7.10;;;3.10;;
71038;SDS011;58692;43.212;27.908;2023-05-07T13:23:01;8.70;;;3.00;;
71038;SDS011;58692;43.212;27.908;2023-05-07T13:25:29;11.60;;;3.20;;
71038;SDS011;58692;43.212;27.908;2023-05-07T13:27:54;8.93;;;3.10;;
71038;SDS011;58692;43.212;27.908;2023-05-07T13:30:21;9.67;;;2.83;;
71038;SDS011;58692;43.212;27.908;2023-05-07T13:32:46;9.10;;;2.88;;
71038;SDS011;58692;43.212;27.908;2023-05-07T13:35:12;8.50;;;3.00;;
71038;SDS011;58692;43.212;27.908;2023-05-07T13:37:38;9.00;;;3.03;;
71038;SDS011;58692;43.212;27.908;2023-05-07T13:40:04;7.43;;;2.63;;
71038;SDS011;58692;43.212;27.908;2023-05-07T13:42:30;6.55;;;3.10;;
71038;SDS011;58692;43.212;27.908;2023-05-07T13:44:56;9.52;;;3.67;;
71038;SDS011;58692;43.212;27.908;2023-05-07T13:47:22;10.90;;;3.43;;
71038;SDS011;58692;43.212;27.908;2023-05-07T13:49:48;10.02;;;3.25;;
71038;SDS011;58692;43.212;27.908;2023-05-07T13:52:15;10.55;;;3.67;;
71038;SDS011;58692;43.212;27.908;2023-05-07T13:54:41;9.48;;;3.28;;
71038;SDS011;58692;43.212;27.908;2023-05-07T13:57:07;6.83;;;3.20;;
71038;SDS011;58692;43.212;27.908;2023-05-07T13:59:33;7.53;;;3.20;;
71038;SDS011;58692;43.212;27.908;2023-05-07T14:01:58;9.00;;;3.85;;
71038;SDS011;58692;43.212;27.908;2023-05-07T14:04:24;12.40;;;3.40;;
71038;SDS011;58692;43.212;27.908;2023-05-07T14:06:49;6.18;;;2.65;;
71038;SDS011;58692;43.212;27.908;2023-05-07T14:09:15;8.43;;;3.50;;
71038;SDS011;58692;43.212;27.908;2023-05-07T14:11:40;9.17;;;3.40;;
71038;SDS011;58692;43.212;27.908;2023-05-07T14:14:06;7.95;;;2.83;;
71038;SDS011;58692;43.212;27.908;2023-05-07T14:16:31;6.43;;;2.97;;
71038;SDS011;58692;43.212;27.908;2023-05-07T14:18:57;7.15;;;2.92;;
71038;SDS011;58692;43.212;27.908;2023-05-07T14:21:22;9.27;;;3.03;;
71038;SDS011;58692;43.212;27.908;2023-05-07T14:23:48;9.07;;;3.23;;
71038;SDS011;58692;43.212;27.908;2023-05-07T14:26:13;9.23;;;3.30;;
71038;SDS011;58692;43.212;27.908;2023-05-07T14:28:39;12.53;;;3.53;;
71038;SDS011;58692;43.212;27.908;2023-05-07T14:31:07;8.88;;;3.33;;
71038;SDS011;58692;43.212;27.908;2023-05-07T14:33:33;8.43;;;3.80;;
71038;SDS011;58692;43.212;27.908;2023-05-07T14:35:58;9.00;;;3.47;;
71038;SDS011;58692;43.212;27.908;2023-05-07T14:38:24;9.67;;;3.13;;
71038;SDS011;58692;43.212;27.908;2023-05-07T14:40:50;8.38;;;3.10;;
71038;SDS011;58692;43.212;27.908;2023-05-07T14:43:15;7.73;;;3.13;;
71038;SDS011;58692;43.212;27.908;2023-05-07T14:45:41;8.05;;;3.58;;
71038;SDS011;58692;43.212;27.908;2023-05-07T14:48:06;11.13;;;3.40;;
71038;SDS011;58692;43.212;27.908;2023-05-07T14:50:32;7.30;;;2.70;;
71038;SDS011;58692;43.212;27.908;2023-05-07T14:52:57;6.93;;;3.20;;
71038;SDS011;58692;43.212;27.908;2023-05-07T14:55:22;8.37;;;2.93;;
71038;SDS011;58692;43.212;27.908;2023-05-07T14:57:48;10.17;;;3.40;;